Portada
METAR-TAF:

METAR-TAF

Aeropuertos :

Aeropuerto Internacional Reina Beatrix

Aruba, Aruba

latitud: 12-30N, longitud: 070-01W, altitud: 18 m

Observación

El informe se hizo hace 40 minutos, a las 02:00 UTC
Viento 18 kt del este
Temperatura 29°C
Humedad 79%
Presión 1013 hPa
Visibilidad 10 km o más
Nubes dispersas a una altura de 1700 ft

METAR: TNCA 230200Z 08018KT 9999 SCT017 29/25 Q1013 NOSIG

Hora: 22:40 (02:40 UTC)

Pronóstico

El informe se hizo hace 2 horas y 55 minutos, a las 23:45 UTC
Pronóstico válido del 23 a las 00 UTC al 23 a las 24 UTC
Viento 16 kt del este
Visibilidad 10 km o más
Escasas nubes a una altura de 1800 ft
Temporalmente
del 23 a las 18 UTC al 23 a las 24 UTC
Viento 23 kt del este con ráfagas de 34 kt

TAF: TNCA 222345Z 2300/2324 08016KT 9999 FEW018 TEMPO 2318/2324 08023G34KT

Observaciones y pronósticos meteorológicos de más de 4000 aeropuertos (mensajes METAR y TAF).

Los puntos amarillos y rojos representan las estaciones disponibles.

Ponga el ratón en el punto deseado para ver el nombre de la estación.

Haga clic para ver las observaciones y los pronósticos meteorológicos.

Para cambiar el mapa : haga clic en los botones verdes con una cruz de color negro para hacer un zoom, en el botón verde con un guión para alejar o en las flechas verdes para mapas adyacentes.


METAR-TAF: